sensor_id;sensor_type;location;lat;lon;timestamp;pressure;altitude;pressure_sealevel;temperature;humidity
24666;BME280;29726;53.532;-1.478;2022-10-31T00:01:23;100041.03;;;16.78;nan
24666;BME280;29726;53.532;-1.478;2022-10-31T00:03:49;100043.84;;;16.78;nan
24666;BME280;29726;53.532;-1.478;2022-10-31T00:06:15;100037.44;;;16.78;nan
24666;BME280;29726;53.532;-1.478;2022-10-31T00:08:44;100035.91;;;16.77;nan
24666;BME280;29726;53.532;-1.478;2022-10-31T00:11:10;100052.81;;;16.77;nan
24666;BME280;29726;53.532;-1.478;2022-10-31T00:13:36;100053.56;;;16.77;nan
24666;BME280;29726;53.532;-1.478;2022-10-31T00:16:01;100059.22;;;16.77;nan
24666;BME280;29726;53.532;-1.478;2022-10-31T00:18:26;100056.94;;;16.76;nan
24666;BME280;29726;53.532;-1.478;2022-10-31T00:20:59;100050.00;;;16.77;nan
24666;BME280;29726;53.532;-1.478;2022-10-31T00:23:25;100051.31;;;16.76;nan
24666;BME280;29726;53.532;-1.478;2022-10-31T00:25:50;100050.53;;;16.75;nan
24666;BME280;29726;53.532;-1.478;2022-10-31T00:28:15;100049.78;;;16.75;nan
24666;BME280;29726;53.532;-1.478;2022-10-31T00:30:41;100051.81;;;16.74;nan
24666;BME280;29726;53.532;-1.478;2022-10-31T00:33:06;100029.03;;;16.67;nan
24666;BME280;29726;53.532;-1.478;2022-10-31T00:35:32;100048.25;;;16.74;nan
24666;BME280;29726;53.532;-1.478;2022-10-31T00:37:57;100038.28;;;16.68;nan
24666;BME280;29726;53.532;-1.478;2022-10-31T00:40:22;100048.75;;;16.73;nan
24666;BME280;29726;53.532;-1.478;2022-10-31T00:42:48;100044.41;;;16.72;nan
24666;BME280;29726;53.532;-1.478;2022-10-31T00:45:13;100042.88;;;16.71;nan
24666;BME280;29726;53.532;-1.478;2022-10-31T00:47:39;100044.16;;;16.70;nan
24666;BME280;29726;53.532;-1.478;2022-10-31T00:50:05;100059.00;;;16.70;nan
24666;BME280;29726;53.532;-1.478;2022-10-31T00:52:30;100051.81;;;16.69;nan
24666;BME280;29726;53.532;-1.478;2022-10-31T00:54:56;100051.81;;;16.69;nan
24666;BME280;29726;53.532;-1.478;2022-10-31T00:57:21;100058.00;;;16.68;nan
24666;BME280;29726;53.532;-1.478;2022-10-31T00:59:47;100052.88;;;16.66;nan
24666;BME280;29726;53.532;-1.478;2022-10-31T01:02:12;100054.41;;;16.67;nan
24666;BME280;29726;53.532;-1.478;2022-10-31T01:04:37;100046.00;;;16.62;nan
24666;BME280;29726;53.532;-1.478;2022-10-31T01:07:03;100056.97;;;16.65;nan
24666;BME280;29726;53.532;-1.478;2022-10-31T01:09:28;100062.63;;;16.65;nan
24666;BME280;29726;53.532;-1.478;2022-10-31T01:11:53;100064.69;;;16.65;nan
24666;BME280;29726;53.532;-1.478;2022-10-31T01:14:19;100060.34;;;16.58;nan
24666;BME280;29726;53.532;-1.478;2022-10-31T01:16:44;100068.78;;;16.64;nan
24666;BME280;29726;53.532;-1.478;2022-10-31T01:19:09;100067.25;;;16.63;nan
24666;BME280;29726;53.532;-1.478;2022-10-31T01:21:35;100060.84;;;16.57;nan
24666;BME280;29726;53.532;-1.478;2022-10-31T01:24:00;100065.72;;;16.62;nan
24666;BME280;29726;53.532;-1.478;2022-10-31T01:26:30;100062.13;;;16.61;nan
24666;BME280;29726;53.532;-1.478;2022-10-31T01:29:02;100041.19;;;16.46;nan
24666;BME280;29726;53.532;-1.478;2022-10-31T01:31:30;100071.13;;;16.60;nan
24666;BME280;29726;53.532;-1.478;2022-10-31T01:33:56;100067.00;;;16.61;nan
24666;BME280;29726;53.532;-1.478;2022-10-31T01:36:23;100065.22;;;16.58;nan
24666;BME280;29726;53.532;-1.478;2022-10-31T01:38:49;100067.53;;;16.59;nan
24666;BME280;29726;53.532;-1.478;2022-10-31T01:41:18;100072.91;;;16.57;nan
24666;BME280;29726;53.532;-1.478;2022-10-31T01:46:24;100084.94;;;16.58;nan
24666;BME280;29726;53.532;-1.478;2022-10-31T01:48:52;100081.88;;;16.56;nan
24666;BME280;29726;53.532;-1.478;2022-10-31T01:51:20;100079.59;;;16.54;nan
24666;BME280;29726;53.532;-1.478;2022-10-31T01:53:50;100076.78;;;16.54;nan
24666;BME280;29726;53.532;-1.478;2022-10-31T01:56:17;100076.25;;;16.56;nan
24666;BME280;29726;53.532;-1.478;2022-10-31T01:58:45;100082.91;;;16.53;nan
24666;BME280;29726;53.532;-1.478;2022-10-31T02:01:12;100065.00;;;16.50;nan
24666;BME280;29726;53.532;-1.478;2022-10-31T02:03:39;100076.53;;;16.52;nan
24666;BME280;29726;53.532;-1.478;2022-10-31T02:06:11;100079.84;;;16.51;nan
24666;BME280;29726;53.532;-1.478;2022-10-31T02:08:39;100072.19;;;16.51;nan
24666;BME280;29726;53.532;-1.478;2022-10-31T02:11:06;100069.88;;;16.44;nan
24666;BME280;29726;53.532;-1.478;2022-10-31T02:13:33;100090.88;;;16.49;nan
24666;BME280;29726;53.532;-1.478;2022-10-31T02:15:59;100089.59;;;16.50;nan
24666;BME280;29726;53.532;-1.478;2022-10-31T02:18:27;100086.03;;;16.49;nan
24666;BME280;29726;53.532;-1.478;2022-10-31T02:40:27;100082.44;;;16.43;nan
24666;BME280;29726;53.532;-1.478;2022-10-31T02:43:19;100082.97;;;16.42;nan
24666;BME280;29726;53.532;-1.478;2022-10-31T02:46:13;100085.78;;;16.42;nan
24666;BME280;29726;53.532;-1.478;2022-10-31T02:48:42;100079.38;;;16.41;nan
24666;BME280;29726;53.532;-1.478;2022-10-31T02:51:11;100072.97;;;16.41;nan
24666;BME280;29726;53.532;-1.478;2022-10-31T02:53:37;100084.25;;;16.41;nan
24666;BME280;29726;53.532;-1.478;2022-10-31T02:56:12;100083.47;;;16.40;nan
24666;BME280;29726;53.532;-1.478;2022-10-31T02:59:02;100065.28;;;16.36;nan
24666;BME280;29726;53.532;-1.478;2022-10-31T03:04:34;100062.75;;;16.38;nan
24666;BME280;29726;53.532;-1.478;2022-10-31T03:07:25;100064.03;;;16.37;nan
24666;BME280;29726;53.532;-1.478;2022-10-31T03:15:30;100049.97;;;16.37;nan
24666;BME280;29726;53.532;-1.478;2022-10-31T03:18:03;100058.91;;;16.35;nan
24666;BME280;29726;53.532;-1.478;2022-10-31T03:20:43;100046.59;;;16.33;nan
24666;BME280;29726;53.532;-1.478;2022-10-31T03:23:16;100042.00;;;16.30;nan
24666;BME280;29726;53.532;-1.478;2022-10-31T03:25:43;100052.50;;;16.35;nan
24666;BME280;29726;53.532;-1.478;2022-10-31T03:28:12;100056.56;;;16.34;nan
24666;BME280;29726;53.532;-1.478;2022-10-31T03:30:43;100048.13;;;16.34;nan
24666;BME280;29726;53.532;-1.478;2022-10-31T03:33:16;100035.31;;;16.33;nan
24666;BME280;29726;53.532;-1.478;2022-10-31T03:35:45;100040.19;;;16.32;nan
24666;BME280;29726;53.532;-1.478;2022-10-31T03:38:13;100035.06;;;16.31;nan
24666;BME280;29726;53.532;-1.478;2022-10-31T03:40:41;100034.56;;;16.27;nan
24666;BME280;29726;53.532;-1.478;2022-10-31T03:43:13;100043.75;;;16.33;nan
24666;BME280;29726;53.532;-1.478;2022-10-31T03:45:44;100039.19;;;16.30;nan
24666;BME280;29726;53.532;-1.478;2022-10-31T03:48:10;100039.94;;;16.30;nan
24666;BME280;29726;53.532;-1.478;2022-10-31T03:50:50;100054.03;;;16.30;nan
24666;BME280;29726;53.532;-1.478;2022-10-31T03:53:38;100048.91;;;16.29;nan
24666;BME280;29726;53.532;-1.478;2022-10-31T03:56:26;100042.78;;;16.30;nan
24666;BME280;29726;53.532;-1.478;2022-10-31T04:01:52;100027.66;;;16.22;nan
24666;BME280;29726;53.532;-1.478;2022-10-31T04:04:20;100038.94;;;16.28;nan
24666;BME280;29726;53.532;-1.478;2022-10-31T04:06:46;100038.19;;;16.27;nan
24666;BME280;29726;53.532;-1.478;2022-10-31T04:09:13;100037.41;;;16.27;nan
24666;BME280;29726;53.532;-1.478;2022-10-31T04:11:48;100035.88;;;16.26;nan
24666;BME280;29726;53.532;-1.478;2022-10-31T04:14:14;100032.81;;;16.24;nan
24666;BME280;29726;53.532;-1.478;2022-10-31T04:16:42;100046.38;;;16.25;nan
24666;BME280;29726;53.532;-1.478;2022-10-31T04:19:10;100043.28;;;16.23;nan
24666;BME280;29726;53.532;-1.478;2022-10-31T04:21:36;100038.44;;;16.24;nan
24666;BME280;29726;53.532;-1.478;2022-10-31T04:24:01;100027.66;;;16.22;nan
24666;BME280;29726;53.532;-1.478;2022-10-31T04:26:26;100025.63;;;16.23;nan
24666;BME280;29726;53.532;-1.478;2022-10-31T04:28:52;100025.63;;;16.23;nan
24666;BME280;29726;53.532;-1.478;2022-10-31T04:31:17;100022.81;;;16.23;nan
24666;BME280;29726;53.532;-1.478;2022-10-31T04:33:43;100026.91;;;16.22;nan
24666;BME280;29726;53.532;-1.478;2022-10-31T04:36:09;100009.25;;;16.21;nan
24666;BME280;29726;53.532;-1.478;2022-10-31T04:38:34;100026.91;;;16.22;nan
24666;BME280;29726;53.532;-1.478;2022-10-31T04:41:00;100017.44;;;16.19;nan
24666;BME280;29726;53.532;-1.478;2022-10-31T04:43:25;100022.03;;;16.22;nan
24666;BME280;29726;53.532;-1.478;2022-10-31T04:45:50;100018.97;;;16.20;nan
24666;BME280;29726;53.532;-1.478;2022-10-31T04:48:16;100018.22;;;16.20;nan
24666;BME280;29726;53.532;-1.478;2022-10-31T04:50:42;100018.22;;;16.20;nan
24666;BME280;29726;53.532;-1.478;2022-10-31T04:53:07;100012.59;;;16.20;nan
24666;BME280;29726;53.532;-1.478;2022-10-31T04:55:32;100005.44;;;16.19;nan
24666;BME280;29726;53.532;-1.478;2022-10-31T04:57:58;100009.53;;;16.18;nan
24666;BME280;29726;53.532;-1.478;2022-10-31T05:00:24;100008.75;;;16.17;nan
24666;BME280;29726;53.532;-1.478;2022-10-31T05:02:54;100009.00;;;16.19;nan
24666;BME280;29726;53.532;-1.478;2022-10-31T05:05:22;100006.97;;;16.20;nan
24666;BME280;29726;53.532;-1.478;2022-10-31T05:07:48;99998.50;;;16.20;nan
24666;BME280;29726;53.532;-1.478;2022-10-31T05:10:16;99965.06;;;15.94;nan
24666;BME280;29726;53.532;-1.478;2022-10-31T05:12:57;99984.94;;;16.18;nan
24666;BME280;29726;53.532;-1.478;2022-10-31T05:15:24;99984.44;;;16.20;nan
24666;BME280;29726;53.532;-1.478;2022-10-31T05:17:51;99979.31;;;16.18;nan
24666;BME280;29726;53.532;-1.478;2022-10-31T05:20:18;99983.66;;;16.19;nan
24666;BME280;29726;53.532;-1.478;2022-10-31T05:22:48;99984.69;;;16.22;nan
24666;BME280;29726;53.532;-1.478;2022-10-31T05:25:14;99973.66;;;16.18;nan
24666;BME280;29726;53.532;-1.478;2022-10-31T05:27:44;99988.53;;;16.19;nan
24666;BME280;29726;53.532;-1.478;2022-10-31T05:30:12;99984.44;;;16.20;nan
24666;BME280;29726;53.532;-1.478;2022-10-31T05:32:45;99994.91;;;16.19;nan
24666;BME280;29726;53.532;-1.478;2022-10-31T05:35:13;99986.22;;;16.12;nan
24666;BME280;29726;53.532;-1.478;2022-10-31T05:37:39;99983.41;;;16.12;nan
24666;BME280;29726;53.532;-1.478;2022-10-31T05:40:08;99998.25;;;16.18;nan
24666;BME280;29726;53.532;-1.478;2022-10-31T05:42:34;99996.19;;;16.18;nan
24666;BME280;29726;53.532;-1.478;2022-10-31T05:45:00;99982.66;;;16.17;nan
24666;BME280;29726;53.532;-1.478;2022-10-31T05:47:25;99978.56;;;16.18;nan
24666;BME280;29726;53.532;-1.478;2022-10-31T05:49:51;99976.53;;;16.13;nan
24666;BME280;29726;53.532;-1.478;2022-10-31T05:52:16;99987.25;;;16.20;nan
24666;BME280;29726;53.532;-1.478;2022-10-31T05:54:42;99977.25;;;16.19;nan
24666;BME280;29726;53.532;-1.478;2022-10-31T05:57:07;99981.06;;;16.21;nan
24666;BME280;29726;53.532;-1.478;2022-10-31T05:59:33;99986.97;;;16.23;nan
24666;BME280;29726;53.532;-1.478;2022-10-31T06:01:58;99985.44;;;16.22;nan
24666;BME280;29726;53.532;-1.478;2022-10-31T06:04:24;99985.66;;;16.24;nan
24666;BME280;29726;53.532;-1.478;2022-10-31T06:06:49;99983.63;;;16.25;nan
24666;BME280;29726;53.532;-1.478;2022-10-31T06:09:14;99984.41;;;16.25;nan
24666;BME280;29726;53.532;-1.478;2022-10-31T06:11:40;99987.47;;;16.27;nan
24666;BME280;29726;53.532;-1.478;2022-10-31T06:14:05;99991.03;;;16.28;nan
24666;BME280;29726;53.532;-1.478;2022-10-31T06:16:31;99980.56;;;16.28;nan
24666;BME280;29726;53.532;-1.478;2022-10-31T06:18:56;99984.13;;;16.29;nan
24666;BME280;29726;53.532;-1.478;2022-10-31T06:21:22;99984.38;;;16.31;nan
24666;BME280;29726;53.532;-1.478;2022-10-31T06:23:47;99981.56;;;16.31;nan
24666;BME280;29726;53.532;-1.478;2022-10-31T06:26:13;99974.13;;;16.28;nan
24666;BME280;29726;53.532;-1.478;2022-10-31T06:28:38;99976.16;;;16.33;nan
24666;BME280;29726;53.532;-1.478;2022-10-31T06:31:03;99951.91;;;16.19;nan
24666;BME280;29726;53.532;-1.478;2022-10-31T06:33:29;99973.63;;;16.35;nan
24666;BME280;29726;53.532;-1.478;2022-10-31T06:35:54;99972.88;;;16.34;nan
24666;BME280;29726;53.532;-1.478;2022-10-31T06:38:20;99970.28;;;16.36;nan
24666;BME280;29726;53.532;-1.478;2022-10-31T06:40:45;99967.97;;;16.35;nan
24666;BME280;29726;53.532;-1.478;2022-10-31T06:43:10;99972.59;;;16.38;nan
24666;BME280;29726;53.532;-1.478;2022-10-31T06:45:36;99966.44;;;16.39;nan
24666;BME280;29726;53.532;-1.478;2022-10-31T06:48:02;99966.66;;;16.41;nan
24666;BME280;29726;53.532;-1.478;2022-10-31T06:50:28;99954.16;;;16.37;nan
24666;BME280;29726;53.532;-1.478;2022-10-31T06:52:58;99964.63;;;16.42;nan
24666;BME280;29726;53.532;-1.478;2022-10-31T06:55:25;99952.06;;;16.43;nan
24666;BME280;29726;53.532;-1.478;2022-10-31T06:57:59;99947.19;;;16.43;nan
24666;BME280;29726;53.532;-1.478;2022-10-31T07:00:26;99955.88;;;16.45;nan
24666;BME280;29726;53.532;-1.478;2022-10-31T07:03:02;99953.06;;;16.45;nan
24666;BME280;29726;53.532;-1.478;2022-10-31T07:05:29;99954.13;;;16.42;nan
24666;BME280;29726;53.532;-1.478;2022-10-31T07:07:59;99954.59;;;16.46;nan
24666;BME280;29726;53.532;-1.478;2022-10-31T07:10:26;99962.53;;;16.48;nan
24666;BME280;29726;53.532;-1.478;2022-10-31T07:12:59;99964.06;;;16.49;nan
24666;BME280;29726;53.532;-1.478;2022-10-31T07:15:26;99964.84;;;16.49;nan
24666;BME280;29726;53.532;-1.478;2022-10-31T07:17:52;99954.59;;;16.46;nan
24666;BME280;29726;53.532;-1.478;2022-10-31T07:20:18;99966.63;;;16.52;nan
24666;BME280;29726;53.532;-1.478;2022-10-31T07:22:44;99968.69;;;16.46;nan
24666;BME280;29726;53.532;-1.478;2022-10-31T07:25:10;99966.63;;;16.52;nan
24666;BME280;29726;53.532;-1.478;2022-10-31T07:27:40;99962.75;;;16.55;nan
24666;BME280;29726;53.532;-1.478;2022-10-31T07:30:07;99961.97;;;16.55;nan
24666;BME280;29726;53.532;-1.478;2022-10-31T07:32:51;99961.97;;;16.55;nan
24666;BME280;29726;53.532;-1.478;2022-10-31T07:35:19;99965.03;;;16.57;nan
24666;BME280;29726;53.532;-1.478;2022-10-31T07:37:45;99965.28;;;16.59;nan
24666;BME280;29726;53.532;-1.478;2022-10-31T07:40:12;99963.25;;;16.59;nan
24666;BME280;29726;53.532;-1.478;2022-10-31T07:42:42;99965.56;;;16.61;nan
24666;BME280;29726;53.532;-1.478;2022-10-31T07:45:09;99965.00;;;16.62;nan
24666;BME280;29726;53.532;-1.478;2022-10-31T07:47:49;99953.22;;;16.64;nan
24666;BME280;29726;53.532;-1.478;2022-10-31T07:50:17;99957.03;;;16.66;nan
24666;BME280;29726;53.532;-1.478;2022-10-31T07:52:43;99954.47;;;16.68;nan
24666;BME280;29726;53.532;-1.478;2022-10-31T07:55:09;99947.81;;;16.71;nan
24666;BME280;29726;53.532;-1.478;2022-10-31T07:57:35;99950.56;;;16.76;nan
24666;BME280;29726;53.532;-1.478;2022-10-31T08:00:09;99944.41;;;16.78;nan
24666;BME280;29726;53.532;-1.478;2022-10-31T08:02:35;99936.94;;;16.80;nan
24666;BME280;29726;53.532;-1.478;2022-10-31T08:05:00;99959.22;;;16.84;nan
24666;BME280;29726;53.532;-1.478;2022-10-31T08:07:28;99948.75;;;16.79;nan
24666;BME280;29726;53.532;-1.478;2022-10-31T08:09:53;99966.63;;;16.87;nan
24666;BME280;29726;53.532;-1.478;2022-10-31T08:12:19;99970.25;;;16.87;nan
24666;BME280;29726;53.532;-1.478;2022-10-31T08:14:44;99968.94;;;16.88;nan
24666;BME280;29726;53.532;-1.478;2022-10-31T08:17:10;99978.41;;;16.91;nan
24666;BME280;29726;53.532;-1.478;2022-10-31T08:19:36;99973.53;;;16.91;nan
24666;BME280;29726;53.532;-1.478;2022-10-31T08:22:01;99966.84;;;16.94;nan
24666;BME280;29726;53.532;-1.478;2022-10-31T08:24:26;99966.84;;;16.94;nan
24666;BME280;29726;53.532;-1.478;2022-10-31T08:26:52;99967.63;;;16.95;nan
24666;BME280;29726;53.532;-1.478;2022-10-31T08:29:17;99972.97;;;16.98;nan
24666;BME280;29726;53.532;-1.478;2022-10-31T08:31:42;99985.25;;;17.01;nan
24666;BME280;29726;53.532;-1.478;2022-10-31T08:34:08;99980.44;;;16.96;nan
24666;BME280;29726;53.532;-1.478;2022-10-31T08:36:34;99972.38;;;17.05;nan
24666;BME280;29726;53.532;-1.478;2022-10-31T08:39:00;99972.09;;;17.09;nan
24666;BME280;29726;53.532;-1.478;2022-10-31T08:41:26;99968.78;;;17.10;nan
24666;BME280;29726;53.532;-1.478;2022-10-31T08:43:51;99972.59;;;17.13;nan
24666;BME280;29726;53.532;-1.478;2022-10-31T08:46:16;99979.75;;;17.14;nan
24666;BME280;29726;53.532;-1.478;2022-10-31T08:48:42;99979.47;;;17.17;nan
24666;BME280;29726;53.532;-1.478;2022-10-31T08:51:08;99967.69;;;17.19;nan
24666;BME280;29726;53.532;-1.478;2022-10-31T08:53:34;99985.59;;;17.21;nan
24666;BME280;29726;53.532;-1.478;2022-10-31T08:55:59;99962.78;;;17.19;nan
24666;BME280;29726;53.532;-1.478;2022-10-31T08:58:25;99973.25;;;17.24;nan
24666;BME280;29726;53.532;-1.478;2022-10-31T09:00:53;99974.78;;;17.25;nan
24666;BME280;29726;53.532;-1.478;2022-10-31T09:03:21;99969.91;;;17.26;nan
24666;BME280;29726;53.532;-1.478;2022-10-31T09:05:47;99956.81;;;17.28;nan
24666;BME280;29726;53.532;-1.478;2022-10-31T09:08:13;99959.63;;;17.28;nan
24666;BME280;29726;53.532;-1.478;2022-10-31T09:10:39;99957.81;;;17.31;nan
24666;BME280;29726;53.532;-1.478;2022-10-31T09:13:08;99966.28;;;17.31;nan
24666;BME280;29726;53.532;-1.478;2022-10-31T09:15:37;99960.13;;;17.32;nan
24666;BME280;29726;53.532;-1.478;2022-10-31T09:18:04;99955.78;;;17.31;nan
24666;BME280;29726;53.532;-1.478;2022-10-31T09:20:31;99947.81;;;17.35;nan
24666;BME280;29726;53.532;-1.478;2022-10-31T09:23:08;99948.56;;;17.36;nan
24666;BME280;29726;53.532;-1.478;2022-10-31T09:25:34;99948.03;;;17.37;nan
24666;BME280;29726;53.532;-1.478;2022-10-31T09:28:01;99951.09;;;17.39;nan
24666;BME280;29726;53.532;-1.478;2022-10-31T09:30:29;99942.88;;;17.41;nan
24666;BME280;29726;53.532;-1.478;2022-10-31T09:32:59;99941.81;;;17.44;nan
24666;BME280;29726;53.532;-1.478;2022-10-31T09:35:25;99924.34;;;17.46;nan
24666;BME280;29726;53.532;-1.478;2022-10-31T09:37:55;99922.19;;;17.33;nan
24666;BME280;29726;53.532;-1.478;2022-10-31T09:40:22;99915.38;;;17.18;nan
24666;BME280;29726;53.532;-1.478;2022-10-31T09:51:05;99878.81;;;17.31;nan
24666;BME280;29726;53.532;-1.478;2022-10-31T09:53:42;99880.25;;;17.43;nan
24666;BME280;29726;53.532;-1.478;2022-10-31T09:56:14;99886.31;;;17.52;nan
24666;BME280;29726;53.532;-1.478;2022-10-31T09:58:47;99876.19;;;17.62;nan
24666;BME280;29726;53.532;-1.478;2022-10-31T10:01:28;99896.34;;;17.72;nan
24666;BME280;29726;53.532;-1.478;2022-10-31T10:04:01;99895.75;;;17.79;nan
24666;BME280;29726;53.532;-1.478;2022-10-31T10:06:29;99900.03;;;17.85;nan
24666;BME280;29726;53.532;-1.478;2022-10-31T10:08:58;99906.16;;;17.89;nan
24666;BME280;29726;53.532;-1.478;2022-10-31T10:17:09;99904.72;;;18.01;nan
24666;BME280;29726;53.532;-1.478;2022-10-31T10:28:20;99909.75;;;18.08;nan
24666;BME280;29726;53.532;-1.478;2022-10-31T10:30:42;99909.13;;;18.15;nan
24666;BME280;29726;53.532;-1.478;2022-10-31T10:33:12;99906.03;;;18.19;nan
24666;BME280;29726;53.532;-1.478;2022-10-31T10:35:44;99909.59;;;18.19;nan
24666;BME280;29726;53.532;-1.478;2022-10-31T10:38:35;99907.00;;;18.21;nan
24666;BME280;29726;53.532;-1.478;2022-10-31T10:41:16;99912.13;;;18.23;nan
24666;BME280;29726;53.532;-1.478;2022-10-31T10:43:41;99903.13;;;18.24;nan
24666;BME280;29726;53.532;-1.478;2022-10-31T10:49:32;99872.41;;;18.15;nan
24666;BME280;29726;53.532;-1.478;2022-10-31T11:00:34;99894.66;;;18.43;nan
24666;BME280;29726;53.532;-1.478;2022-10-31T11:03:01;99895.88;;;18.47;nan
24666;BME280;29726;53.532;-1.478;2022-10-31T11:05:47;99895.03;;;18.52;nan
24666;BME280;29726;53.532;-1.478;2022-10-31T11:08:28;99894.72;;;18.55;nan
24666;BME280;29726;53.532;-1.478;2022-10-31T11:11:19;99875.91;;;18.58;nan
24666;BME280;29726;53.532;-1.478;2022-10-31T11:13:50;99887.91;;;18.64;nan
24666;BME280;29726;53.532;-1.478;2022-10-31T11:18:51;99890.34;;;18.73;nan
24666;BME280;29726;53.532;-1.478;2022-10-31T11:21:23;99879.47;;;18.77;nan
24666;BME280;29726;53.532;-1.478;2022-10-31T11:23:50;99884.56;;;18.78;nan
24666;BME280;29726;53.532;-1.478;2022-10-31T11:26:20;99889.19;;;18.81;nan
24666;BME280;29726;53.532;-1.478;2022-10-31T11:28:56;99881.66;;;18.84;nan
24666;BME280;29726;53.532;-1.478;2022-10-31T11:31:23;99878.63;;;18.82;nan
24666;BME280;29726;53.532;-1.478;2022-10-31T11:33:53;99873.63;;;18.88;nan
24666;BME280;29726;53.532;-1.478;2022-10-31T11:36:27;99859.69;;;18.90;nan
24666;BME280;29726;53.532;-1.478;2022-10-31T11:38:53;99850.91;;;18.93;nan
24666;BME280;29726;53.532;-1.478;2022-10-31T11:41:36;99855.16;;;19.00;nan
24666;BME280;29726;53.532;-1.478;2022-10-31T11:44:24;99848.63;;;19.05;nan
24666;BME280;29726;53.532;-1.478;2022-10-31T11:47:05;99842.66;;;19.08;nan
24666;BME280;29726;53.532;-1.478;2022-10-31T11:49:36;99832.00;;;19.14;nan
24666;BME280;29726;53.532;-1.478;2022-10-31T11:52:08;99833.69;;;19.23;nan
24666;BME280;29726;53.532;-1.478;2022-10-31T11:54:46;99828.22;;;19.25;nan
24666;BME280;29726;53.532;-1.478;2022-10-31T11:57:29;99825.09;;;19.28;nan
24666;BME280;29726;53.532;-1.478;2022-10-31T12:00:00;99848.59;;;19.36;nan
24666;BME280;29726;53.532;-1.478;2022-10-31T12:02:26;99843.38;;;19.40;nan
24666;BME280;29726;53.532;-1.478;2022-10-31T12:05:26;99840.75;;;19.42;nan
24666;BME280;29726;53.532;-1.478;2022-10-31T12:07:50;99834.56;;;19.44;nan
24666;BME280;29726;53.532;-1.478;2022-10-31T12:10:16;99834.00;;;19.45;nan
24666;BME280;29726;53.532;-1.478;2022-10-31T12:26:23;99795.47;;;19.55;nan
24666;BME280;29726;53.532;-1.478;2022-10-31T12:37:04;99806.00;;;19.55;nan
24666;BME280;29726;53.532;-1.478;2022-10-31T12:48:19;99786.28;;;19.62;nan
24666;BME280;29726;53.532;-1.478;2022-10-31T12:59:52;99730.44;;;19.63;nan
24666;BME280;29726;53.532;-1.478;2022-10-31T13:05:17;99749.75;;;19.85;nan
24666;BME280;29726;53.532;-1.478;2022-10-31T13:10:25;99736.00;;;19.89;nan
24666;BME280;29726;53.532;-1.478;2022-10-31T13:12:57;99734.69;;;19.90;nan
24666;BME280;29726;53.532;-1.478;2022-10-31T13:15:27;99734.91;;;19.92;nan
24666;BME280;29726;53.532;-1.478;2022-10-31T13:18:04;99733.59;;;19.93;nan
24666;BME280;29726;53.532;-1.478;2022-10-31T13:20:50;99733.59;;;19.93;nan
24666;BME280;29726;53.532;-1.478;2022-10-31T13:23:32;99735.09;;;19.94;nan
24666;BME280;29726;53.532;-1.478;2022-10-31T13:26:03;99725.28;;;19.95;nan
24666;BME280;29726;53.532;-1.478;2022-10-31T13:31:50;99727.34;;;19.94;nan
24666;BME280;29726;53.532;-1.478;2022-10-31T13:34:27;99726.81;;;19.96;nan
24666;BME280;29726;53.532;-1.478;2022-10-31T13:42:59;99708.50;;;19.97;nan
24666;BME280;29726;53.532;-1.478;2022-10-31T13:45:27;99694.34;;;19.97;nan
24666;BME280;29726;53.532;-1.478;2022-10-31T13:50:25;99685.28;;;19.98;nan
24666;BME280;29726;53.532;-1.478;2022-10-31T13:52:51;99671.88;;;19.99;nan
24666;BME280;29726;53.532;-1.478;2022-10-31T13:55:41;99676.22;;;20.00;nan
24666;BME280;29726;53.532;-1.478;2022-10-31T13:58:23;99681.16;;;19.99;nan
24666;BME280;29726;53.532;-1.478;2022-10-31T14:03:41;99672.88;;;20.01;nan
24666;BME280;29726;53.532;-1.478;2022-10-31T14:06:09;99668.75;;;20.02;nan
24666;BME280;29726;53.532;-1.478;2022-10-31T14:08:41;99662.28;;;20.02;nan
24666;BME280;29726;53.532;-1.478;2022-10-31T14:11:23;99666.97;;;19.99;nan
24666;BME280;29726;53.532;-1.478;2022-10-31T14:13:49;99643.47;;;19.91;nan
24666;BME280;29726;53.532;-1.478;2022-10-31T14:16:24;99649.09;;;20.04;nan
24666;BME280;29726;53.532;-1.478;2022-10-31T14:18:59;99652.47;;;20.03;nan
24666;BME280;29726;53.532;-1.478;2022-10-31T14:21:37;99647.78;;;20.05;nan
24666;BME280;29726;53.532;-1.478;2022-10-31T14:26:58;99653.47;;;20.05;nan
24666;BME280;29726;53.532;-1.478;2022-10-31T14:29:26;99654.19;;;20.06;nan
24666;BME280;29726;53.532;-1.478;2022-10-31T14:32:43;99643.97;;;20.03;nan
24666;BME280;29726;53.532;-1.478;2022-10-31T14:34:53;99641.16;;;20.03;nan
24666;BME280;29726;53.532;-1.478;2022-10-31T14:40:25;99641.16;;;20.03;nan
24666;BME280;29726;53.532;-1.478;2022-10-31T14:51:26;99602.91;;;19.96;nan
24666;BME280;29726;53.532;-1.478;2022-10-31T14:53:56;99591.13;;;19.85;nan
24666;BME280;29726;53.532;-1.478;2022-10-31T14:56:29;99602.91;;;19.96;nan
24666;BME280;29726;53.532;-1.478;2022-10-31T14:58:58;99604.97;;;19.96;nan
24666;BME280;29726;53.532;-1.478;2022-10-31T15:01:33;99599.31;;;19.96;nan
24666;BME280;29726;53.532;-1.478;2022-10-31T15:04:16;99589.31;;;19.95;nan
24666;BME280;29726;53.532;-1.478;2022-10-31T15:06:44;99588.69;;;19.89;nan
24666;BME280;29726;53.532;-1.478;2022-10-31T15:09:40;99582.81;;;19.87;nan
24666;BME280;29726;53.532;-1.478;2022-10-31T15:12:35;99588.69;;;19.89;nan
24666;BME280;29726;53.532;-1.478;2022-10-31T15:15:24;99591.94;;;19.93;nan
24666;BME280;29726;53.532;-1.478;2022-10-31T15:20:25;99576.03;;;19.90;nan
24666;BME280;29726;53.532;-1.478;2022-10-31T15:22:52;99569.19;;;19.85;nan
24666;BME280;29726;53.532;-1.478;2022-10-31T15:25:20;99566.56;;;19.87;nan
24666;BME280;29726;53.532;-1.478;2022-10-31T15:27:48;99561.66;;;19.88;nan
24666;BME280;29726;53.532;-1.478;2022-10-31T15:30:22;99550.88;;;19.86;nan
24666;BME280;29726;53.532;-1.478;2022-10-31T15:32:48;99548.81;;;19.87;nan
24666;BME280;29726;53.532;-1.478;2022-10-31T15:35:22;99545.22;;;19.86;nan
24666;BME280;29726;53.532;-1.478;2022-10-31T15:37:49;99541.63;;;19.86;nan
24666;BME280;29726;53.532;-1.478;2022-10-31T15:40:17;99533.69;;;19.84;nan
24666;BME280;29726;53.532;-1.478;2022-10-31T15:42:49;99534.47;;;19.85;nan
24666;BME280;29726;53.532;-1.478;2022-10-31T15:45:19;99538.38;;;19.82;nan
24666;BME280;29726;53.532;-1.478;2022-10-31T15:48:16;99527.03;;;19.82;nan